createdAt,value
2022-10-05T00:00:51.591Z,15.40
2022-10-05T00:03:18.242Z,15.40
2022-10-05T00:05:46.025Z,15.40
2022-10-05T00:08:22.894Z,14.10
2022-10-05T00:10:50.661Z,15.40
2022-10-05T00:13:23.324Z,15.40
2022-10-05T00:15:50.411Z,15.40
2022-10-05T00:18:20.050Z,15.40
2022-10-05T00:20:48.579Z,15.40
2022-10-05T00:23:21.425Z,15.40
2022-10-05T00:25:48.038Z,15.40
2022-10-05T00:28:30.345Z,15.40
2022-10-05T00:30:58.944Z,15.40
2022-10-05T00:33:26.850Z,15.40
2022-10-05T00:35:54.478Z,15.40
2022-10-05T00:38:21.331Z,16.60
2022-10-05T00:41:08.191Z,15.40
2022-10-05T00:44:07.478Z,15.40
2022-10-05T00:47:18.484Z,15.40
2022-10-05T00:49:54.079Z,15.40
2022-10-05T00:52:57.982Z,15.40
2022-10-05T00:55:50.819Z,15.50
2022-10-05T00:58:35.993Z,15.40
2022-10-05T01:01:08.822Z,15.40
2022-10-05T01:04:14.321Z,15.40
2022-10-05T01:07:16.147Z,15.50
2022-10-05T01:09:53.699Z,15.50
2022-10-05T01:12:34.536Z,15.50
2022-10-05T01:15:10.959Z,15.40
2022-10-05T01:17:49.511Z,15.50
2022-10-05T01:20:53.879Z,15.50
2022-10-05T01:23:39.050Z,15.50
2022-10-05T01:26:30.055Z,15.50
2022-10-05T01:29:10.037Z,15.50
2022-10-05T01:31:42.961Z,15.40
2022-10-05T01:34:34.867Z,15.40
2022-10-05T01:37:20.679Z,15.40
2022-10-05T01:39:57.759Z,15.30
2022-10-05T01:43:02.200Z,15.40
2022-10-05T01:45:43.718Z,15.40
2022-10-05T01:48:39.626Z,15.40
2022-10-05T01:51:21.688Z,15.40
2022-10-05T01:54:20.445Z,15.30
2022-10-05T01:57:00.915Z,15.40
2022-10-05T01:59:49.082Z,15.40
2022-10-05T02:02:21.299Z,15.40
2022-10-05T02:05:01.883Z,15.40
2022-10-05T02:07:58.609Z,15.40
2022-10-05T02:10:30.272Z,15.30
2022-10-05T02:13:18.457Z,15.30
2022-10-05T02:15:52.742Z,15.30
2022-10-05T02:18:28.787Z,15.40
2022-10-05T02:20:57.019Z,15.40
2022-10-05T02:23:27.506Z,15.40
2022-10-05T02:25:56.047Z,15.40
2022-10-05T02:28:38.347Z,15.30
2022-10-05T02:31:10.367Z,15.40
2022-10-05T02:33:37.346Z,15.40
2022-10-05T02:36:23.718Z,15.30
2022-10-05T02:39:14.818Z,15.30
2022-10-05T02:41:54.959Z,15.30
2022-10-05T02:44:40.477Z,15.30
2022-10-05T02:47:17.138Z,15.40
2022-10-05T02:49:59.258Z,15.40
2022-10-05T02:52:41.388Z,15.30
2022-10-05T02:55:26.572Z,15.30
2022-10-05T02:58:15.819Z,15.30
2022-10-05T03:01:02.071Z,15.30
2022-10-05T03:03:42.993Z,15.20
2022-10-05T03:06:20.614Z,15.20
2022-10-05T03:08:58.029Z,15.20
2022-10-05T03:11:46.421Z,15.30
2022-10-05T03:14:31.219Z,15.30
2022-10-05T03:17:10.730Z,15.20
2022-10-05T03:20:16.125Z,15.30
2022-10-05T03:22:58.667Z,14.30
2022-10-05T03:25:53.997Z,15.30
2022-10-05T03:28:30.462Z,15.30
2022-10-05T03:31:04.662Z,15.30
2022-10-05T03:33:43.571Z,15.30
2022-10-05T03:36:30.381Z,15.30
2022-10-05T03:39:12.038Z,15.30
2022-10-05T03:41:54.988Z,15.30
2022-10-05T03:44:36.591Z,15.20
2022-10-05T03:47:08.763Z,15.20
2022-10-05T03:50:26.095Z,15.20
2022-10-05T03:52:59.925Z,15.20
2022-10-05T03:55:36.760Z,15.30
2022-10-05T03:58:12.126Z,15.20
2022-10-05T04:00:40.352Z,15.20
2022-10-05T04:03:17.229Z,15.20
2022-10-05T04:05:51.585Z,15.20
2022-10-05T04:08:21.877Z,15.20
2022-10-05T04:11:15.951Z,15.20
2022-10-05T04:14:03.440Z,15.30
2022-10-05T04:16:37.874Z,15.30
2022-10-05T04:19:29.678Z,15.30
2022-10-05T04:22:15.595Z,15.40
2022-10-05T04:24:45.974Z,15.30
2022-10-05T04:27:17.835Z,15.30
2022-10-05T04:29:55.715Z,15.20
2022-10-05T04:32:43.569Z,15.30
2022-10-05T04:35:27.938Z,15.20
2022-10-05T04:38:25.613Z,15.20
2022-10-05T04:41:12.796Z,15.10
2022-10-05T04:44:13.319Z,15.20
2022-10-05T04:47:15.191Z,13.80
2022-10-05T04:49:56.829Z,15.30
2022-10-05T04:52:38.445Z,16.70
2022-10-05T04:55:25.182Z,15.40
2022-10-05T04:58:06.908Z,15.40
2022-10-05T05:00:43.505Z,15.30
2022-10-05T05:03:41.729Z,15.30
2022-10-05T05:06:36.596Z,15.30
2022-10-05T05:09:23.918Z,15.20
2022-10-05T05:12:56.468Z,15.40
2022-10-05T05:15:47.137Z,15.30
2022-10-05T05:18:32.158Z,15.30
2022-10-05T05:21:25.300Z,15.20
2022-10-05T05:24:01.315Z,15.20
2022-10-05T05:26:39.035Z,15.10
2022-10-05T05:29:28.207Z,15.00
2022-10-05T05:32:12.320Z,15.10
2022-10-05T05:35:03.676Z,15.20
2022-10-05T05:37:43.336Z,15.30
2022-10-05T05:40:17.426Z,15.30
2022-10-05T05:42:58.146Z,15.40
2022-10-05T05:45:46.937Z,15.40
2022-10-05T05:48:43.410Z,16.20
2022-10-05T05:51:23.600Z,16.70
2022-10-05T05:53:54.984Z,16.80
2022-10-05T05:56:34.500Z,16.60
2022-10-05T05:59:24.401Z,16.30
2022-10-05T06:02:16.590Z,16.00
2022-10-05T06:04:58.490Z,15.90
2022-10-05T06:07:31.242Z,15.70
2022-10-05T06:10:21.776Z,15.50
2022-10-05T06:12:52.437Z,15.40
2022-10-05T06:15:31.072Z,15.40
2022-10-05T06:18:01.308Z,15.40
2022-10-05T06:20:38.289Z,15.30
2022-10-05T06:23:13.094Z,15.30
2022-10-05T06:25:45.457Z,15.30
2022-10-05T06:28:13.725Z,15.30
2022-10-05T06:30:57.921Z,15.30
2022-10-05T06:33:54.487Z,15.30
2022-10-05T06:36:33.024Z,15.30
2022-10-05T06:39:32.343Z,15.20
2022-10-05T06:42:39.779Z,15.30
2022-10-05T06:45:29.260Z,15.30
2022-10-05T06:48:19.929Z,15.40
2022-10-05T06:50:54.049Z,15.40
2022-10-05T06:53:46.177Z,15.40
2022-10-05T06:56:22.708Z,15.40
2022-10-05T06:59:10.553Z,15.40
2022-10-05T07:01:50.931Z,15.40
2022-10-05T07:04:48.664Z,15.30
2022-10-05T07:07:34.874Z,15.30
2022-10-05T07:10:20.277Z,15.30
2022-10-05T07:12:58.675Z,15.30
2022-10-05T07:15:36.370Z,15.40
2022-10-05T07:18:28.989Z,15.30
2022-10-05T07:21:20.112Z,15.30
2022-10-05T07:24:04.291Z,15.30
2022-10-05T07:26:47.665Z,15.40
2022-10-05T07:29:24.372Z,15.40
2022-10-05T07:32:00.530Z,15.30
2022-10-05T07:34:29.868Z,15.30
2022-10-05T07:37:27.327Z,15.30
2022-10-05T07:40:09.218Z,15.40
2022-10-05T07:43:06.951Z,15.50
2022-10-05T07:45:46.684Z,15.50
2022-10-05T07:48:33.002Z,15.60
2022-10-05T07:51:25.740Z,15.60
2022-10-05T07:54:17.981Z,15.10
2022-10-05T07:56:49.472Z,15.60
2022-10-05T07:59:28.637Z,15.50
2022-10-05T08:02:07.619Z,15.50
2022-10-05T08:04:42.003Z,15.40
2022-10-05T08:07:15.759Z,15.40
2022-10-05T08:09:54.708Z,15.40
2022-10-05T08:12:33.782Z,15.40
2022-10-05T08:15:09.967Z,15.50
2022-10-05T08:18:00.680Z,15.50
2022-10-05T08:20:33.591Z,15.50
2022-10-05T08:23:17.436Z,15.50
2022-10-05T08:26:11.128Z,15.60
2022-10-05T08:28:42.648Z,15.70
2022-10-05T08:31:18.796Z,15.70
2022-10-05T08:34:00.602Z,15.70
2022-10-05T08:36:53.876Z,15.70
2022-10-05T08:39:24.183Z,15.60
2022-10-05T08:42:07.304Z,15.60
2022-10-05T08:44:52.426Z,15.70
2022-10-05T08:47:37.196Z,15.70
2022-10-05T08:50:34.879Z,15.60
2022-10-05T08:53:20.331Z,15.70
2022-10-05T08:56:28.669Z,15.90
2022-10-05T08:59:01.782Z,15.90
2022-10-05T09:01:51.313Z,15.90
2022-10-05T09:04:35.829Z,15.90
2022-10-05T09:07:26.990Z,15.80
2022-10-05T09:10:06.302Z,15.60
2022-10-05T09:13:05.382Z,15.60
2022-10-05T09:16:10.022Z,15.70
2022-10-05T09:19:03.949Z,15.70
2022-10-05T09:21:43.347Z,16.00
2022-10-05T09:24:22.623Z,16.20
2022-10-05T09:27:04.556Z,16.20
2022-10-05T09:29:59.215Z,16.10
2022-10-05T09:32:51.658Z,16.20
2022-10-05T09:35:58.092Z,16.30
2022-10-05T09:38:33.510Z,16.20
2022-10-05T09:41:16.809Z,16.20
2022-10-05T09:44:17.272Z,16.30
2022-10-05T09:46:59.308Z,16.30
2022-10-05T09:50:05.965Z,16.40
2022-10-05T09:53:20.904Z,16.40
2022-10-05T09:56:00.243Z,16.30
2022-10-05T09:58:39.186Z,16.40
2022-10-05T10:01:32.474Z,16.40
2022-10-05T10:04:07.006Z,16.60
2022-10-05T10:07:13.419Z,16.80
2022-10-05T10:09:58.103Z,16.70
2022-10-05T10:12:35.740Z,16.50
2022-10-05T10:15:10.936Z,16.50
2022-10-05T10:18:06.894Z,16.40
2022-10-05T10:21:29.405Z,16.40
2022-10-05T10:24:20.398Z,16.30
2022-10-05T10:27:27.436Z,16.40
2022-10-05T10:30:19.255Z,16.40
2022-10-05T10:33:04.244Z,16.40
2022-10-05T10:35:37.763Z,16.40
2022-10-05T10:38:40.028Z,16.40
2022-10-05T10:41:18.245Z,16.40
2022-10-05T10:44:22.780Z,16.40
2022-10-05T10:47:27.185Z,16.40
2022-10-05T10:50:26.264Z,16.40
2022-10-05T10:53:17.554Z,16.40
2022-10-05T10:56:08.678Z,16.50
2022-10-05T10:58:56.364Z,16.50
2022-10-05T11:01:41.211Z,16.40
2022-10-05T11:04:44.721Z,16.30
2022-10-05T11:07:29.996Z,16.40
2022-10-05T11:10:03.475Z,16.40
2022-10-05T11:12:57.958Z,16.30
2022-10-05T11:15:49.262Z,16.30
2022-10-05T11:18:41.290Z,16.30
2022-10-05T11:21:30.374Z,16.30
2022-10-05T11:24:22.045Z,16.60
2022-10-05T11:27:42.037Z,16.20
2022-10-05T11:30:34.599Z,16.30
2022-10-05T11:33:04.214Z,16.20
2022-10-05T11:35:59.107Z,16.20
2022-10-05T11:38:31.479Z,16.10
2022-10-05T11:41:28.413Z,16.20
2022-10-05T11:44:07.276Z,16.20
2022-10-05T11:46:55.205Z,16.20
2022-10-05T11:49:21.797Z,16.20
2022-10-05T11:51:54.924Z,16.30
2022-10-05T11:54:28.569Z,16.40
2022-10-05T11:57:09.608Z,16.40
2022-10-05T12:00:08.443Z,16.40
2022-10-05T12:03:12.982Z,16.40
2022-10-05T12:05:57.449Z,16.40
2022-10-05T12:08:40.512Z,16.40
2022-10-05T12:11:33.345Z,16.40
2022-10-05T12:14:24.333Z,16.40
2022-10-05T12:17:01.956Z,16.50
2022-10-05T12:19:36.448Z,16.50
2022-10-05T12:22:15.386Z,16.50
2022-10-05T12:25:01.485Z,16.50
2022-10-05T12:27:51.992Z,16.50
2022-10-05T12:30:58.109Z,16.60
2022-10-05T12:33:37.256Z,16.60
2022-10-05T12:36:11.935Z,16.70
2022-10-05T12:38:46.058Z,16.70
2022-10-05T12:41:29.084Z,16.80
2022-10-05T12:43:58.752Z,16.80
2022-10-05T12:46:53.538Z,16.80
2022-10-05T12:50:03.248Z,16.90
2022-10-05T12:52:49.426Z,16.90
2022-10-05T12:55:34.775Z,16.90
2022-10-05T12:58:16.548Z,16.90
2022-10-05T13:01:14.127Z,17.00
2022-10-05T13:03:54.535Z,17.00
2022-10-05T13:06:47.695Z,17.10
2022-10-05T13:09:47.613Z,17.10
2022-10-05T13:12:30.838Z,17.20
2022-10-05T13:15:19.966Z,17.30
2022-10-05T13:17:52.803Z,17.30
2022-10-05T13:20:35.219Z,17.30
2022-10-05T13:23:04.816Z,17.20
2022-10-05T13:25:39.122Z,17.40
2022-10-05T13:28:16.797Z,17.50
2022-10-05T13:30:56.082Z,17.40
2022-10-05T13:33:49.000Z,17.40
2022-10-05T13:36:56.812Z,17.50
2022-10-05T13:39:58.052Z,17.50
2022-10-05T13:43:00.304Z,17.50
2022-10-05T13:45:39.132Z,17.50
2022-10-05T13:48:43.692Z,17.50
2022-10-05T13:51:18.272Z,17.60
2022-10-05T13:53:49.665Z,17.60
2022-10-05T13:56:22.014Z,17.70
2022-10-05T13:58:58.027Z,17.60
2022-10-05T14:02:01.123Z,17.60
2022-10-05T14:04:48.041Z,17.70
2022-10-05T14:07:53.622Z,17.60
2022-10-05T14:10:42.876Z,17.70
2022-10-05T14:13:26.759Z,17.70
2022-10-05T14:16:23.946Z,17.80
2022-10-05T14:18:55.271Z,17.90
2022-10-05T14:21:28.662Z,17.90
2022-10-05T14:23:58.679Z,17.90
2022-10-05T14:26:35.711Z,17.80
2022-10-05T14:29:14.194Z,17.90
2022-10-05T14:31:54.320Z,17.90
2022-10-05T14:34:34.589Z,17.90
2022-10-05T14:37:24.687Z,18.00
2022-10-05T14:39:56.573Z,18.00
2022-10-05T14:42:26.686Z,18.00
2022-10-05T14:45:11.482Z,18.00
2022-10-05T14:48:01.713Z,18.10
2022-10-05T14:50:31.265Z,18.00
2022-10-05T14:53:10.200Z,18.10
2022-10-05T14:55:57.740Z,18.10
2022-10-05T14:58:43.213Z,18.20
2022-10-05T15:01:24.104Z,18.20
2022-10-05T15:04:13.804Z,18.20
2022-10-05T15:07:18.202Z,18.30
2022-10-05T15:10:10.524Z,18.30
2022-10-05T15:12:46.671Z,18.30
2022-10-05T15:15:54.632Z,18.20
2022-10-05T15:18:41.873Z,18.20
2022-10-05T15:21:45.165Z,18.20
2022-10-05T15:24:22.133Z,18.20
2022-10-05T15:26:52.987Z,18.30
2022-10-05T15:29:38.159Z,18.30
2022-10-05T15:32:41.991Z,18.30
2022-10-05T15:35:44.294Z,18.30
2022-10-05T15:38:25.645Z,18.30
2022-10-05T15:41:08.277Z,18.30
2022-10-05T15:44:00.561Z,18.40
2022-10-05T15:47:02.894Z,18.40
2022-10-05T15:49:48.331Z,18.40
2022-10-05T15:52:23.814Z,18.30
2022-10-05T15:55:22.638Z,18.20
2022-10-05T15:58:08.338Z,18.30
2022-10-05T16:01:07.984Z,18.20
2022-10-05T16:03:49.246Z,18.20
2022-10-05T16:06:59.544Z,18.20
2022-10-05T16:09:36.636Z,18.20
2022-10-05T16:12:13.074Z,18.20
2022-10-05T16:14:56.575Z,18.20
2022-10-05T16:17:40.960Z,18.20
2022-10-05T16:20:49.973Z,18.30
2022-10-05T16:23:22.161Z,18.20
2022-10-05T16:26:00.992Z,18.20
2022-10-05T16:28:33.627Z,18.20
2022-10-05T16:31:19.037Z,18.20
2022-10-05T16:34:17.101Z,18.10
2022-10-05T16:37:09.332Z,18.10
2022-10-05T16:40:04.047Z,18.00
2022-10-05T16:42:53.668Z,18.00
2022-10-05T16:45:47.815Z,18.00
2022-10-05T16:48:29.175Z,18.00
2022-10-05T16:51:01.514Z,18.00
2022-10-05T16:53:43.362Z,18.00
2022-10-05T16:56:14.833Z,18.00
2022-10-05T16:58:41.403Z,18.00
2022-10-05T17:01:29.626Z,18.00
2022-10-05T17:04:35.078Z,18.00
2022-10-05T17:07:34.677Z,18.00
2022-10-05T17:10:24.794Z,18.00
2022-10-05T17:13:11.483Z,18.00
2022-10-05T17:16:00.708Z,18.00
2022-10-05T17:19:05.259Z,18.00
2022-10-05T17:21:44.757Z,18.10
2022-10-05T17:24:11.339Z,18.00
2022-10-05T17:26:57.770Z,18.00
2022-10-05T17:29:41.645Z,18.00
2022-10-05T17:32:16.624Z,18.00
2022-10-05T17:35:15.962Z,18.10
2022-10-05T17:38:15.309Z,18.10
2022-10-05T17:41:14.082Z,18.10
2022-10-05T17:44:01.414Z,18.00
2022-10-05T17:46:58.371Z,17.90
2022-10-05T17:49:34.104Z,17.80
2022-10-05T17:52:22.467Z,17.80
2022-10-05T17:55:07.970Z,17.90
2022-10-05T17:57:36.803Z,17.80
2022-10-05T18:00:34.563Z,17.90
2022-10-05T18:03:33.778Z,18.00
2022-10-05T18:06:25.571Z,17.90
2022-10-05T18:09:20.543Z,18.00
2022-10-05T18:12:03.289Z,18.10
2022-10-05T18:14:58.821Z,18.20
2022-10-05T18:17:45.450Z,18.00
2022-10-05T18:20:24.277Z,17.90
2022-10-05T18:22:53.174Z,17.90
2022-10-05T18:25:38.295Z,17.90
2022-10-05T18:28:34.764Z,17.90
2022-10-05T18:31:32.250Z,17.90
2022-10-05T18:34:10.263Z,17.90
2022-10-05T18:36:58.481Z,17.80
2022-10-05T18:39:49.813Z,17.90
2022-10-05T18:42:33.006Z,17.80
2022-10-05T18:45:21.380Z,17.80
2022-10-05T18:48:00.496Z,17.80
2022-10-05T18:50:30.133Z,17.90
2022-10-05T18:53:14.462Z,17.90
2022-10-05T18:55:53.405Z,18.00
2022-10-05T18:58:26.486Z,18.00
2022-10-05T19:00:56.568Z,18.00
2022-10-05T19:03:36.685Z,18.00
2022-10-05T19:06:13.408Z,18.00
2022-10-05T19:09:00.945Z,18.00
2022-10-05T19:11:33.218Z,18.00
2022-10-05T19:14:32.909Z,18.00
2022-10-05T19:17:18.084Z,18.00
2022-10-05T19:20:07.520Z,18.00
2022-10-05T19:22:59.718Z,18.00
2022-10-05T19:25:37.128Z,18.00
2022-10-05T19:29:06.301Z,18.00
2022-10-05T19:31:37.309Z,18.00
2022-10-05T19:34:39.623Z,18.00
2022-10-05T19:37:14.958Z,18.10
2022-10-05T19:40:04.615Z,18.10
2022-10-05T19:43:11.530Z,18.10
2022-10-05T19:45:46.767Z,18.10
2022-10-05T19:48:26.937Z,18.20
2022-10-05T19:51:01.482Z,18.20
2022-10-05T19:53:37.037Z,18.20
2022-10-05T19:56:20.361Z,18.20
2022-10-05T19:58:48.948Z,18.20
2022-10-05T20:01:36.845Z,18.20
2022-10-05T20:04:04.989Z,18.30
2022-10-05T20:06:31.759Z,18.30
2022-10-05T20:09:02.695Z,18.30
2022-10-05T20:11:29.477Z,18.30
2022-10-05T20:14:02.236Z,18.30
2022-10-05T20:16:48.663Z,18.30
2022-10-05T20:19:52.036Z,18.20
2022-10-05T20:22:27.634Z,18.30
2022-10-05T20:24:57.251Z,18.20
2022-10-05T20:27:52.098Z,18.20
2022-10-05T20:30:24.628Z,18.10
2022-10-05T20:32:56.244Z,18.20
2022-10-05T20:35:22.994Z,18.20
2022-10-05T20:37:49.989Z,18.20
2022-10-05T20:40:19.154Z,18.10
2022-10-05T20:42:46.395Z,18.20
2022-10-05T20:45:13.860Z,18.00
2022-10-05T20:47:42.082Z,17.90
2022-10-05T20:50:10.440Z,17.90
2022-10-05T20:52:38.043Z,17.90
2022-10-05T20:55:11.197Z,17.90
2022-10-05T20:57:46.033Z,17.90
2022-10-05T21:00:13.417Z,17.90
2022-10-05T21:02:40.103Z,17.90
2022-10-05T21:05:07.644Z,17.90
2022-10-05T21:07:34.634Z,17.90
2022-10-05T21:10:03.283Z,17.80
2022-10-05T21:12:30.168Z,17.80
2022-10-05T21:14:56.805Z,17.80
2022-10-05T21:17:23.541Z,17.80
2022-10-05T21:19:50.541Z,17.80
2022-10-05T21:22:17.140Z,17.80
2022-10-05T21:24:43.766Z,17.90
2022-10-05T21:27:10.392Z,17.70
2022-10-05T21:29:37.303Z,17.80
2022-10-05T21:32:08.652Z,17.80
2022-10-05T21:34:35.434Z,17.70
2022-10-05T21:37:02.096Z,17.80
2022-10-05T21:39:28.747Z,17.80
2022-10-05T21:41:55.397Z,17.80
2022-10-05T21:44:22.048Z,17.80
2022-10-05T21:46:49.175Z,17.80
2022-10-05T21:49:19.623Z,17.90
2022-10-05T21:51:47.196Z,17.90
2022-10-05T21:54:20.675Z,17.80
2022-10-05T21:56:54.624Z,17.80
2022-10-05T21:59:24.479Z,17.80
2022-10-05T22:01:51.125Z,17.80
2022-10-05T22:04:17.827Z,17.80
2022-10-05T22:06:44.471Z,17.80
2022-10-05T22:09:12.027Z,17.80
2022-10-05T22:11:38.713Z,17.80
2022-10-05T22:14:05.379Z,17.80
2022-10-05T22:16:34.564Z,17.90
2022-10-05T22:19:06.334Z,17.90
2022-10-05T22:21:37.883Z,17.80
2022-10-05T22:24:05.005Z,17.90
2022-10-05T22:26:31.902Z,17.90
2022-10-05T22:28:58.671Z,17.90
2022-10-05T22:31:25.302Z,17.90
2022-10-05T22:33:52.111Z,17.80
2022-10-05T22:36:19.351Z,17.80
2022-10-05T22:38:47.496Z,17.90
2022-10-05T22:41:17.074Z,17.90
2022-10-05T22:43:43.914Z,17.90
2022-10-05T22:46:12.247Z,17.80
2022-10-05T22:48:39.775Z,17.90
2022-10-05T22:51:07.312Z,17.80
2022-10-05T22:53:34.674Z,17.80
2022-10-05T22:56:09.287Z,17.60
2022-10-05T22:58:36.573Z,17.40
2022-10-05T23:01:06.146Z,17.20
2022-10-05T23:03:33.563Z,17.00
2022-10-05T23:06:06.053Z,15.60
2022-10-05T23:08:34.203Z,16.70
2022-10-05T23:11:06.276Z,16.70
2022-10-05T23:13:33.473Z,16.60
2022-10-05T23:16:11.742Z,16.60
2022-10-05T23:18:39.196Z,16.50
2022-10-05T23:21:08.500Z,16.50
2022-10-05T23:23:40.001Z,16.40
2022-10-05T23:26:08.457Z,16.40
2022-10-05T23:28:35.170Z,16.50
2022-10-05T23:31:06.706Z,16.40
2022-10-05T23:33:33.925Z,16.40
2022-10-05T23:36:02.125Z,16.40
2022-10-05T23:38:30.007Z,16.40
2022-10-05T23:40:58.852Z,16.40
2022-10-05T23:43:26.670Z,16.40
2022-10-05T23:45:53.608Z,16.40
2022-10-05T23:48:20.308Z,16.30
2022-10-05T23:50:47.848Z,16.30
2022-10-05T23:53:14.855Z,16.30
2022-10-05T23:55:42.041Z,16.30
2022-10-05T23:58:08.909Z,16.30
